createdAt,value
2019-02-16T00:00:23.140Z,4.4
2019-02-16T00:05:19.705Z,4.4
2019-02-16T00:10:16.224Z,4.4
2019-02-16T00:15:12.549Z,4.4
2019-02-16T00:20:09.289Z,4.4
2019-02-16T00:25:05.670Z,4.4
2019-02-16T00:30:02.311Z,4.5
2019-02-16T00:34:58.939Z,4.4
2019-02-16T00:39:55.351Z,4.4
2019-02-16T00:44:51.955Z,4.4
2019-02-16T00:49:48.550Z,4.4
2019-02-16T00:54:44.909Z,4.4
2019-02-16T00:59:41.431Z,4.4
2019-02-16T01:04:39.161Z,4.4
2019-02-16T01:09:34.482Z,4.4
2019-02-16T01:14:29.847Z,4.4
2019-02-16T01:19:26.378Z,4.4
2019-02-16T01:24:22.524Z,4.5
2019-02-16T01:29:19.148Z,4.4
2019-02-16T01:34:15.893Z,4.5
2019-02-16T01:39:12.178Z,4.4
2019-02-16T01:44:09.064Z,4.3
2019-02-16T01:49:05.477Z,4.3
2019-02-16T01:54:01.804Z,4.3
2019-02-16T01:58:58.443Z,4.3
2019-02-16T02:03:54.594Z,4.3
2019-02-16T02:08:51.246Z,4.3
2019-02-16T02:13:47.545Z,4.3
2019-02-16T02:18:44.251Z,4.4
2019-02-16T02:23:40.577Z,4.4
2019-02-16T02:28:37.141Z,4.4
2019-02-16T02:33:33.351Z,4.4
2019-02-16T02:38:29.759Z,3.9
2019-02-16T02:43:26.186Z,4.4
2019-02-16T02:48:22.699Z,4.4
2019-02-16T02:53:19.403Z,3.8
2019-02-16T02:58:15.669Z,4.3
2019-02-16T03:03:11.848Z,4.3
2019-02-16T03:08:08.506Z,4.3
2019-02-16T03:13:04.896Z,4.3
2019-02-16T03:18:01.392Z,4.3
2019-02-16T03:22:57.276Z,4.3
2019-02-16T03:27:53.812Z,4.3
2019-02-16T03:32:50.716Z,4.2
2019-02-16T03:37:47.163Z,4.1
2019-02-16T03:42:43.797Z,4.1
2019-02-16T03:47:40.490Z,4
2019-02-16T03:52:37.198Z,4.2
2019-02-16T03:57:33.958Z,3.8
2019-02-16T04:02:30.640Z,4.3
2019-02-16T04:07:27.046Z,4.3
2019-02-16T04:12:23.289Z,4.3
2019-02-16T04:17:19.914Z,4.3
2019-02-16T04:22:24.115Z,4.3
2019-02-16T04:27:12.951Z,4.3
2019-02-16T04:32:08.873Z,4.4
2019-02-16T04:37:05.307Z,4.4
2019-02-16T04:42:01.820Z,3.7
2019-02-16T04:46:58.348Z,4.3
2019-02-16T04:51:54.792Z,4.2
2019-02-16T04:56:51.145Z,4.2
2019-02-16T05:01:47.593Z,4.2
2019-02-16T05:06:44.253Z,4.1
2019-02-16T05:11:40.604Z,4.1
2019-02-16T05:16:37.107Z,4.1
2019-02-16T05:21:33.661Z,4.2
2019-02-16T05:26:30.070Z,4.1
2019-02-16T05:31:26.578Z,4.1
2019-02-16T05:36:23.094Z,4
2019-02-16T05:41:19.800Z,4.1
2019-02-16T05:46:16.287Z,4
2019-02-16T05:51:12.579Z,4.1
2019-02-16T05:56:09.276Z,4.2
2019-02-16T06:01:05.340Z,4.1
2019-02-16T06:06:01.988Z,4.1
2019-02-16T06:10:58.011Z,4
2019-02-16T06:15:54.626Z,4.1
2019-02-16T06:20:51.147Z,4.1
2019-02-16T06:25:47.723Z,4.1
2019-02-16T06:30:44.271Z,4.1
2019-02-16T06:35:40.825Z,4.2
2019-02-16T06:40:37.422Z,4.3
2019-02-16T06:45:33.864Z,4.2
2019-02-16T06:50:36.677Z,4.2
2019-02-16T06:55:26.322Z,4.2
2019-02-16T07:00:22.942Z,4.3
2019-02-16T07:05:19.464Z,4.3
2019-02-16T07:10:15.993Z,4.3
2019-02-16T07:15:12.512Z,4.3
2019-02-16T07:20:09.030Z,4.3
2019-02-16T07:25:05.582Z,4.4
2019-02-16T07:30:02.070Z,4.4
2019-02-16T07:34:58.682Z,4.4
2019-02-16T07:39:55.250Z,4.5
2019-02-16T07:44:52.030Z,4.6
2019-02-16T07:49:48.712Z,4.6
2019-02-16T07:54:45.427Z,4.7
2019-02-16T07:59:42.121Z,4.7
2019-02-16T08:04:38.596Z,4.7
2019-02-16T08:09:34.881Z,4.8
2019-02-16T08:14:31.476Z,4.8
2019-02-16T08:19:27.693Z,4.9
2019-02-16T08:24:24.292Z,4.9
2019-02-16T08:29:20.310Z,5
2019-02-16T08:34:16.962Z,5.1
2019-02-16T08:39:13.664Z,5.1
2019-02-16T08:44:10.269Z,5.1
2019-02-16T08:49:06.254Z,5.2
2019-02-16T08:54:02.916Z,5.3
2019-02-16T08:58:59.723Z,5.4
2019-02-16T09:03:56.314Z,5.5
2019-02-16T09:08:52.534Z,5.5
2019-02-16T09:13:49.139Z,5.6
2019-02-16T09:18:45.314Z,5.6
2019-02-16T09:23:42.011Z,5.6
2019-02-16T09:28:38.645Z,5.7
2019-02-16T09:33:35.408Z,5.8
2019-02-16T09:38:31.858Z,5.9
2019-02-16T09:43:28.466Z,6
2019-02-16T09:48:25.066Z,6.1
2019-02-16T09:53:21.583Z,5.6
2019-02-16T09:58:17.369Z,6.3
2019-02-16T10:03:14.066Z,6.4
2019-02-16T10:08:10.788Z,6.6
2019-02-16T10:13:07.429Z,6.8
2019-02-16T10:18:04.189Z,7.1
2019-02-16T10:23:01.159Z,6.9
2019-02-16T10:27:57.904Z,7.7
2019-02-16T10:32:54.584Z,7.3
2019-02-16T10:37:51.279Z,7.6
2019-02-16T10:42:48.393Z,7.7
2019-02-16T10:47:45.180Z,7.7
2019-02-16T10:52:42.000Z,7.9
2019-02-16T10:57:38.661Z,7.9
2019-02-16T11:02:35.458Z,8
2019-02-16T11:07:32.203Z,7.9
2019-02-16T11:12:28.799Z,7.9
2019-02-16T11:17:25.380Z,8
2019-02-16T11:22:22.098Z,8.1
2019-02-16T11:27:18.732Z,8.1
2019-02-16T11:32:15.261Z,8.2
2019-02-16T11:37:11.722Z,8.3
2019-02-16T11:42:08.414Z,8.5
2019-02-16T11:47:05.079Z,8.6
2019-02-16T11:52:01.977Z,8.8
2019-02-16T11:56:58.270Z,9
2019-02-16T12:01:55.220Z,9.7
2019-02-16T12:06:52.082Z,9.4
2019-02-16T12:11:49.068Z,9.6
2019-02-16T12:16:45.423Z,9.8
2019-02-16T12:21:42.813Z,10.4
2019-02-16T12:26:38.952Z,10.7
2019-02-16T12:31:36.018Z,10.9
2019-02-16T12:36:32.744Z,11
2019-02-16T12:41:29.500Z,11.1
2019-02-16T12:46:26.358Z,11.2
2019-02-16T12:51:23.048Z,11.3
2019-02-16T12:56:19.591Z,11.3
2019-02-16T13:01:16.481Z,11.4
2019-02-16T13:06:13.460Z,11.6
2019-02-16T13:11:10.408Z,11.6
2019-02-16T13:16:06.712Z,11.4
2019-02-16T13:21:03.474Z,11.4
2019-02-16T13:26:00.078Z,11.4
2019-02-16T13:30:56.783Z,11.4
2019-02-16T13:35:53.544Z,11.4
2019-02-16T13:40:49.766Z,11.3
2019-02-16T13:45:46.596Z,11.3
2019-02-16T13:50:43.351Z,11.3
2019-02-16T13:55:40.061Z,11.3
2019-02-16T14:00:36.759Z,11.3
2019-02-16T14:05:33.312Z,11.1
2019-02-16T14:10:29.894Z,11.1
2019-02-16T14:15:26.564Z,11.1
2019-02-16T14:20:23.110Z,11
2019-02-16T14:25:19.500Z,10.5
2019-02-16T14:30:16.399Z,11
2019-02-16T14:35:12.880Z,10.4
2019-02-16T14:40:09.621Z,10.3
2019-02-16T14:45:06.243Z,10.6
2019-02-16T14:50:02.842Z,10.6
2019-02-16T14:54:58.829Z,10.6
2019-02-16T14:59:56.564Z,10.6
2019-02-16T15:04:52.936Z,10.5
2019-02-16T15:09:49.852Z,10.4
2019-02-16T15:14:46.057Z,10.4
2019-02-16T15:19:42.788Z,10.4
2019-02-16T15:24:39.253Z,10.3
2019-02-16T15:29:36.007Z,10.2
2019-02-16T15:34:32.440Z,9.7
2019-02-16T15:39:29.313Z,10.1
2019-02-16T15:44:25.967Z,10
2019-02-16T15:49:22.617Z,9.4
2019-02-16T15:54:19.207Z,9.8
2019-02-16T15:59:15.836Z,9.2
2019-02-16T16:04:12.407Z,9.7
2019-02-16T16:09:09.130Z,9.4
2019-02-16T16:14:06.559Z,9
2019-02-16T16:19:02.103Z,8.9
2019-02-16T16:23:58.695Z,8.9
2019-02-16T16:29:00.503Z,8.8
2019-02-16T16:33:52.122Z,8.8
2019-02-16T16:38:48.901Z,8.8
2019-02-16T16:43:45.387Z,8.7
2019-02-16T16:48:42.004Z,8.7
2019-02-16T16:53:38.811Z,8.6
2019-02-16T16:58:35.269Z,8.6
2019-02-16T17:03:31.595Z,8.6
2019-02-16T17:08:28.160Z,8.5
2019-02-16T17:13:24.783Z,8.5
2019-02-16T17:18:21.173Z,8.4
2019-02-16T17:23:17.619Z,8.2
2019-02-16T17:28:14.162Z,8.2
2019-02-16T17:33:10.706Z,8.1
2019-02-16T17:38:07.188Z,8.1
2019-02-16T17:43:03.373Z,8.1
2019-02-16T17:48:00.013Z,6.7
2019-02-16T17:52:56.454Z,7.8
2019-02-16T17:57:53.323Z,7.8
2019-02-16T18:02:49.834Z,7.8
2019-02-16T18:07:46.361Z,7.7
2019-02-16T18:12:42.864Z,7.6
2019-02-16T18:17:39.740Z,7.6
2019-02-16T18:22:36.278Z,7.5
2019-02-16T18:27:33.046Z,7.4
2019-02-16T18:32:31.461Z,7.4
2019-02-16T18:37:26.247Z,7.3
2019-02-16T18:42:22.794Z,7.2
2019-02-16T18:47:19.423Z,7.1
2019-02-16T18:52:16.048Z,7.7
2019-02-16T18:57:12.264Z,7.1
2019-02-16T19:02:08.738Z,7.3
2019-02-16T19:07:05.423Z,7
2019-02-16T19:12:01.981Z,7.4
2019-02-16T19:16:58.419Z,7.2
2019-02-16T19:21:54.796Z,7
2019-02-16T19:26:51.448Z,6.7
2019-02-16T19:31:48.107Z,6.8
2019-02-16T19:36:44.892Z,7
2019-02-16T19:41:41.405Z,6.6
2019-02-16T19:46:38.148Z,7.1
2019-02-16T19:51:34.729Z,7.1
2019-02-16T19:56:31.505Z,7
2019-02-16T20:01:28.170Z,7
2019-02-16T20:06:24.836Z,7
2019-02-16T20:11:21.517Z,6.8
2019-02-16T20:16:18.048Z,6.8
2019-02-16T20:21:14.632Z,6.8
2019-02-16T20:26:11.184Z,6.8
2019-02-16T20:31:07.888Z,6.8
2019-02-16T20:36:04.052Z,6.4
2019-02-16T20:41:00.640Z,6.8
2019-02-16T20:45:57.214Z,6.7
2019-02-16T20:50:53.698Z,6.7
2019-02-16T21:00:47.142Z,6.7
2019-02-16T21:05:43.722Z,6.7
2019-02-16T21:10:40.142Z,6.6
2019-02-16T21:15:36.519Z,6.6
2019-02-16T21:20:32.797Z,6.6
2019-02-16T21:25:29.643Z,6.6
2019-02-16T21:30:26.289Z,6.1
2019-02-16T21:35:23.060Z,6.5
2019-02-16T21:40:19.533Z,6.4
2019-02-16T21:45:16.150Z,6.4
2019-02-16T21:50:12.720Z,6.4
2019-02-16T21:55:09.457Z,6.3
2019-02-16T22:00:06.167Z,6.3
2019-02-16T22:05:02.951Z,6.2
2019-02-16T22:09:59.537Z,6.3
2019-02-16T22:14:56.223Z,6.2
2019-02-16T22:19:52.856Z,5.7
2019-02-16T22:24:49.585Z,6.2
2019-02-16T22:29:46.289Z,6
2019-02-16T22:34:42.840Z,6.2
2019-02-16T22:39:39.349Z,6.2
2019-02-16T22:44:35.813Z,6.2
2019-02-16T22:49:32.812Z,5.6
2019-02-16T22:54:29.573Z,6.1
2019-02-16T22:59:26.359Z,6.1
2019-02-16T23:04:22.861Z,6.1
2019-02-16T23:09:19.642Z,6.1
2019-02-16T23:14:16.342Z,6.1
2019-02-16T23:19:12.577Z,6.1
2019-02-16T23:24:09.420Z,6
2019-02-16T23:29:06.065Z,6
2019-02-16T23:34:02.624Z,6
2019-02-16T23:38:59.002Z,6
2019-02-16T23:43:55.591Z,5.9
2019-02-16T23:48:52.291Z,5.9
2019-02-16T23:53:49.119Z,5.3
2019-02-16T23:58:49.138Z,5.8
